createdAt,value
2023-03-06T00:04:51.608Z,21.17
2023-03-06T00:09:43.544Z,17.60
2023-03-06T00:14:35.680Z,17.85
2023-03-06T00:19:28.249Z,18.00
2023-03-06T00:24:20.270Z,19.38
2023-03-06T00:29:12.507Z,15.52
2023-03-06T00:34:04.439Z,20.90
2023-03-06T00:38:56.308Z,15.98
2023-03-06T00:43:50.139Z,15.70
2023-03-06T00:48:44.176Z,17.77
2023-03-06T00:53:36.248Z,16.42
2023-03-06T00:58:29.268Z,16.57
2023-03-06T01:03:21.764Z,14.48
2023-03-06T01:08:16.864Z,16.52
2023-03-06T01:13:08.802Z,15.38
2023-03-06T01:18:01.105Z,15.00
2023-03-06T01:22:56.621Z,17.25
2023-03-06T01:27:48.450Z,14.70
2023-03-06T01:32:44.479Z,12.50
2023-03-06T01:37:37.680Z,17.08
2023-03-06T01:42:32.242Z,15.40
2023-03-06T01:47:24.203Z,14.93
2023-03-06T01:52:19.418Z,14.52
2023-03-06T01:57:19.553Z,15.00
2023-03-06T02:02:13.355Z,16.00
2023-03-06T02:07:07.031Z,14.48
2023-03-06T02:12:03.498Z,16.25
2023-03-06T02:16:55.520Z,15.00
2023-03-06T02:21:48.605Z,15.63
2023-03-06T02:26:42.823Z,17.52
2023-03-06T02:31:35.748Z,15.15
2023-03-06T02:36:30.111Z,14.05
2023-03-06T02:41:22.174Z,15.65
2023-03-06T02:46:14.182Z,13.65
2023-03-06T02:51:06.115Z,15.15
2023-03-06T02:55:58.016Z,13.30
2023-03-06T03:00:49.969Z,15.98
2023-03-06T03:05:42.689Z,13.63
2023-03-06T03:10:47.872Z,12.68
2023-03-06T03:15:39.913Z,12.43
2023-03-06T03:20:31.867Z,15.02
2023-03-06T03:25:25.492Z,13.02
2023-03-06T03:30:21.473Z,12.75
2023-03-06T03:35:13.758Z,13.27
2023-03-06T03:40:10.353Z,13.48
2023-03-06T03:45:02.567Z,12.70
2023-03-06T03:49:54.806Z,12.47
2023-03-06T03:54:49.494Z,10.90
2023-03-06T03:59:42.751Z,11.38
2023-03-06T04:04:48.546Z,13.27
2023-03-06T04:09:40.586Z,13.32
2023-03-06T04:14:34.718Z,11.52
2023-03-06T04:19:27.221Z,12.75
2023-03-06T04:24:19.264Z,11.17
2023-03-06T04:29:11.589Z,10.37
2023-03-06T04:34:04.595Z,10.82
2023-03-06T04:38:59.232Z,10.40
2023-03-06T04:43:53.154Z,12.02
2023-03-06T04:48:45.443Z,11.07
2023-03-06T04:53:37.454Z,10.93
2023-03-06T04:58:29.330Z,11.23
2023-03-06T05:03:21.176Z,11.10
2023-03-06T05:08:15.356Z,12.15
2023-03-06T05:13:09.311Z,10.40
2023-03-06T05:18:01.133Z,10.05
2023-03-06T05:22:53.023Z,11.02
2023-03-06T05:27:45.015Z,9.98
2023-03-06T05:32:36.866Z,11.65
2023-03-06T05:37:28.683Z,9.85
2023-03-06T05:42:20.743Z,10.27
2023-03-06T05:47:16.319Z,9.90
2023-03-06T05:52:08.879Z,8.88
2023-03-06T05:57:01.184Z,10.38
2023-03-06T06:01:53.106Z,9.20
2023-03-06T06:06:46.097Z,9.70
2023-03-06T06:11:38.002Z,9.80
2023-03-06T06:16:30.089Z,10.45
2023-03-06T06:21:22.096Z,10.10
2023-03-06T06:26:13.974Z,9.63
2023-03-06T06:31:13.432Z,9.65
2023-03-06T06:36:06.642Z,11.05
2023-03-06T06:41:30.669Z,9.65
2023-03-06T06:46:41.889Z,10.25
2023-03-06T06:51:22.780Z,8.77
2023-03-06T06:56:14.719Z,10.18
2023-03-06T07:01:08.322Z,8.98
2023-03-06T07:06:00.647Z,8.48
2023-03-06T07:10:52.715Z,12.47
2023-03-06T07:15:44.715Z,23.75
2023-03-06T07:20:36.515Z,13.80
2023-03-06T07:25:28.402Z,42.72
2023-03-06T07:30:22.882Z,71.93
2023-03-06T07:35:20.368Z,50.58
2023-03-06T07:40:12.865Z,34.88
2023-03-06T07:45:06.228Z,35.58
2023-03-06T07:49:58.763Z,45.75
2023-03-06T07:54:50.609Z,30.50
2023-03-06T07:59:43.471Z,24.65
2023-03-06T08:04:35.343Z,34.42
2023-03-06T08:09:27.531Z,40.00
2023-03-06T08:14:20.528Z,36.97
2023-03-06T08:19:12.370Z,57.47
2023-03-06T08:24:05.507Z,41.53
2023-03-06T08:28:59.659Z,48.08
2023-03-06T08:33:52.114Z,53.58
2023-03-06T08:38:43.985Z,38.85
2023-03-06T08:43:36.204Z,43.05
2023-03-06T08:48:28.408Z,62.83
2023-03-06T08:53:22.693Z,46.22
2023-03-06T08:58:19.885Z,56.88
2023-03-06T09:03:11.763Z,59.60
2023-03-06T09:08:03.681Z,47.17
2023-03-06T09:12:56.526Z,54.58
2023-03-06T09:17:48.470Z,55.60
2023-03-06T09:22:42.575Z,49.58
2023-03-06T09:27:34.330Z,43.92
2023-03-06T09:32:26.346Z,46.58
2023-03-06T09:37:18.658Z,46.92
2023-03-06T09:42:16.658Z,54.67
2023-03-06T09:47:28.673Z,61.25
2023-03-06T09:52:43.612Z,67.40
2023-03-06T09:57:38.700Z,68.43
2023-03-06T10:02:35.695Z,85.05
2023-03-06T10:07:45.020Z,77.25
2023-03-06T10:12:40.441Z,89.18
2023-03-06T10:17:38.021Z,64.53
2023-03-06T10:22:39.099Z,70.70
2023-03-06T10:27:47.693Z,60.95
2023-03-06T10:32:59.338Z,60.25
2023-03-06T10:37:51.361Z,75.72
2023-03-06T10:42:43.247Z,69.60
2023-03-06T10:47:36.974Z,68.03
2023-03-06T10:52:33.484Z,82.95
2023-03-06T10:57:28.530Z,66.25
2023-03-06T11:02:38.704Z,72.57
2023-03-06T11:07:35.002Z,75.63
2023-03-06T11:12:41.237Z,72.82
2023-03-06T11:17:37.688Z,65.22
2023-03-06T11:22:29.580Z,84.40
2023-03-06T11:27:26.245Z,63.58
2023-03-06T11:32:24.301Z,52.20
2023-03-06T11:37:25.313Z,54.35
2023-03-06T11:42:17.383Z,73.88
2023-03-06T11:47:21.054Z,50.42
2023-03-06T11:52:43.291Z,69.15
2023-03-06T11:57:49.216Z,65.50
2023-03-06T12:03:21.098Z,59.20
2023-03-06T12:08:20.824Z,51.60
2023-03-06T12:13:20.622Z,39.65
2023-03-06T12:18:18.340Z,51.15
2023-03-06T12:23:34.888Z,55.75
2023-03-06T12:28:59.835Z,45.67
2023-03-06T12:34:25.681Z,50.08
2023-03-06T12:39:48.316Z,50.22
2023-03-06T12:45:10.854Z,49.83
2023-03-06T12:50:22.972Z,56.72
2023-03-06T12:55:19.377Z,43.30
2023-03-06T13:00:32.661Z,48.38
2023-03-06T13:05:38.418Z,42.43
2023-03-06T13:10:35.218Z,47.88
2023-03-06T13:15:40.522Z,42.00
2023-03-06T13:20:44.648Z,41.22
2023-03-06T13:25:47.877Z,47.95
2023-03-06T13:30:39.946Z,32.97
2023-03-06T13:35:36.037Z,34.97
2023-03-06T13:40:33.410Z,36.88
2023-03-06T13:45:33.196Z,41.72
2023-03-06T13:50:41.773Z,36.40
2023-03-06T13:56:10.974Z,41.25
2023-03-06T14:01:19.976Z,40.72
2023-03-06T14:06:37.547Z,42.63
2023-03-06T14:11:30.338Z,48.47
2023-03-06T14:16:32.681Z,37.58
2023-03-06T14:21:31.551Z,45.85
2023-03-06T14:26:25.486Z,45.13
2023-03-06T14:31:19.695Z,43.50
2023-03-06T14:36:15.501Z,37.28
2023-03-06T14:41:37.736Z,36.63
2023-03-06T14:46:29.631Z,39.70
2023-03-06T14:51:23.826Z,48.10
2023-03-06T14:56:18.681Z,41.40
2023-03-06T15:01:13.298Z,41.22
2023-03-06T15:06:06.796Z,44.00
2023-03-06T15:11:04.033Z,45.00
2023-03-06T15:16:01.208Z,62.00
2023-03-06T15:21:05.650Z,57.63
2023-03-06T15:26:22.622Z,78.75
2023-03-06T15:31:27.998Z,58.95
2023-03-06T15:36:21.806Z,80.55
2023-03-06T15:41:24.051Z,60.88
2023-03-06T15:46:17.024Z,97.93
2023-03-06T15:51:09.024Z,100.43
2023-03-06T15:56:01.853Z,112.75
2023-03-06T16:00:53.862Z,112.72
2023-03-06T16:05:46.936Z,120.47
2023-03-06T16:15:33.947Z,115.30
2023-03-06T16:20:29.336Z,107.10
2023-03-06T16:25:23.142Z,110.38
2023-03-06T16:30:18.998Z,95.18
2023-03-06T16:35:14.503Z,113.55
2023-03-06T16:40:22.250Z,94.80
2023-03-06T16:45:14.501Z,125.85
2023-03-06T16:50:06.912Z,91.80
2023-03-06T16:54:58.841Z,126.83
2023-03-06T16:59:51.513Z,127.82
2023-03-06T17:04:43.421Z,109.88
2023-03-06T17:09:35.363Z,110.65
2023-03-06T17:14:27.885Z,123.85
2023-03-06T17:19:20.628Z,109.75
2023-03-06T17:24:12.579Z,102.47
2023-03-06T17:29:06.964Z,91.38
2023-03-06T17:34:01.994Z,90.93
2023-03-06T17:38:58.236Z,95.20
2023-03-06T17:43:57.880Z,90.30
2023-03-06T17:48:50.122Z,101.20
2023-03-06T17:53:42.039Z,87.83
2023-03-06T17:58:42.259Z,86.22
2023-03-06T18:03:34.141Z,89.53
2023-03-06T18:08:26.016Z,89.03
2023-03-06T18:13:18.035Z,75.18
2023-03-06T18:18:30.528Z,72.72
2023-03-06T18:23:23.505Z,79.37
2023-03-06T18:28:31.216Z,87.25
2023-03-06T18:33:23.205Z,77.55
2023-03-06T18:38:15.144Z,74.07
2023-03-06T18:43:07.097Z,65.10
2023-03-06T18:47:59.123Z,80.40
2023-03-06T18:52:51.729Z,57.97
2023-03-06T18:57:44.147Z,66.00
2023-03-06T19:02:36.034Z,61.80
2023-03-06T19:07:27.857Z,68.93
2023-03-06T19:12:19.796Z,53.92
2023-03-06T19:17:11.817Z,62.58
2023-03-06T19:22:03.646Z,58.20
2023-03-06T19:26:55.553Z,46.22
2023-03-06T19:31:47.408Z,58.50
2023-03-06T19:36:40.965Z,43.20
2023-03-06T19:41:33.770Z,53.85
2023-03-06T19:46:26.526Z,51.08
2023-03-06T19:51:18.363Z,46.63
2023-03-06T19:56:26.941Z,41.65
2023-03-06T20:01:21.095Z,48.22
2023-03-06T20:06:18.802Z,40.58
2023-03-06T20:11:18.894Z,43.58
2023-03-06T20:16:18.513Z,49.28
2023-03-06T20:21:11.905Z,44.33
2023-03-06T20:26:06.057Z,30.60
2023-03-06T20:30:58.137Z,47.33
2023-03-06T20:35:50.090Z,26.23
2023-03-06T20:40:43.114Z,32.85
2023-03-06T20:50:27.654Z,29.40
2023-03-06T20:55:19.644Z,33.72
2023-03-06T21:00:24.029Z,31.77
2023-03-06T21:05:15.923Z,37.25
2023-03-06T21:10:09.046Z,23.08
2023-03-06T21:19:54.224Z,25.83
2023-03-06T21:24:46.149Z,28.38
2023-03-06T21:29:37.977Z,22.33
2023-03-06T21:34:29.842Z,30.20
2023-03-06T21:39:21.891Z,22.15
2023-03-06T21:44:13.965Z,25.48
2023-03-06T21:49:06.077Z,24.20
2023-03-06T21:53:59.060Z,22.97
2023-03-06T21:58:52.147Z,23.80
2023-03-06T22:08:35.842Z,22.58
2023-03-06T22:13:27.712Z,20.38
2023-03-06T22:18:20.190Z,19.75
2023-03-06T22:23:12.232Z,23.30
2023-03-06T22:28:04.216Z,19.55
2023-03-06T22:32:56.077Z,19.90
2023-03-06T22:37:48.004Z,15.63
2023-03-06T22:42:39.894Z,19.23
2023-03-06T22:47:31.710Z,17.58
2023-03-06T22:52:24.684Z,18.98
2023-03-06T22:57:16.492Z,19.13
2023-03-06T23:02:08.409Z,15.57
2023-03-06T23:07:00.279Z,26.42
2023-03-06T23:11:52.183Z,17.20
2023-03-06T23:17:10.592Z,16.90
2023-03-06T23:22:21.566Z,15.45
2023-03-06T23:27:37.298Z,14.32
2023-03-06T23:32:29.140Z,16.75
2023-03-06T23:37:20.993Z,21.05
2023-03-06T23:42:12.990Z,20.70
2023-03-06T23:47:04.952Z,14.02
2023-03-06T23:51:56.825Z,12.65
2023-03-06T23:56:49.216Z,14.32
